createdAt,value
2023-02-19T00:00:14.865Z,100771.72
2023-02-19T00:00:47.588Z,100778.81
2023-02-19T00:01:23.207Z,100767.28
2023-02-19T00:01:37.958Z,100770.03
2023-02-19T00:01:52.536Z,100775.31
2023-02-19T00:02:05.483Z,100771.78
2023-02-19T00:02:19.516Z,100777.03
2023-02-19T00:02:32.626Z,100774.44
2023-02-19T00:02:48.428Z,100770.88
2023-02-19T00:03:02.566Z,100766.44
2023-02-19T00:03:15.502Z,100769.06
2023-02-19T00:03:28.999Z,100765.47
2023-02-19T00:03:42.985Z,100766.44
2023-02-19T00:03:59.147Z,100769.84
2023-02-19T00:04:14.278Z,100775.16
2023-02-19T00:04:27.296Z,100774.31
2023-02-19T00:04:40.524Z,100769.00
2023-02-19T00:04:53.550Z,100773.41
2023-02-19T00:05:06.610Z,100773.41
2023-02-19T00:05:19.918Z,100774.31
2023-02-19T00:05:36.381Z,100774.31
2023-02-19T00:05:49.377Z,100778.72
2023-02-19T00:06:03.045Z,100774.38
2023-02-19T00:06:16.289Z,100774.38
2023-02-19T00:06:31.646Z,100770.03
2023-02-19T00:06:47.094Z,100775.31
2023-02-19T00:07:00.008Z,100775.31
2023-02-19T00:07:13.198Z,100776.16
2023-02-19T00:07:26.140Z,100777.97
2023-02-19T00:07:39.094Z,100774.44
2023-02-19T00:07:52.041Z,100779.66
2023-02-19T00:08:05.054Z,100774.44
2023-02-19T00:08:17.643Z,100775.31
2023-02-19T00:08:32.109Z,100778.03
2023-02-19T00:08:45.378Z,100773.59
2023-02-19T00:08:59.005Z,100773.59
2023-02-19T00:09:13.070Z,100771.78
2023-02-19T00:09:26.321Z,100775.31
2023-02-19T00:09:40.446Z,100773.59
2023-02-19T00:09:53.406Z,100774.44
2023-02-19T00:10:06.988Z,100773.59
2023-02-19T00:10:20.037Z,100773.59
2023-02-19T00:10:33.051Z,100782.31
2023-02-19T00:10:46.026Z,100770.88
2023-02-19T00:11:02.341Z,100777.97
2023-02-19T00:11:17.601Z,100777.97
2023-02-19T00:11:33.123Z,100785.91
2023-02-19T00:11:46.649Z,100779.72
2023-02-19T00:11:59.662Z,100776.16
2023-02-19T00:12:12.690Z,100775.31
2023-02-19T00:12:25.817Z,100775.31
2023-02-19T00:12:39.691Z,100780.63
2023-02-19T00:12:52.677Z,100783.25
2023-02-19T00:13:05.598Z,100781.47
2023-02-19T00:13:19.992Z,100776.16
2023-02-19T00:13:37.075Z,100777.88
2023-02-19T00:13:52.328Z,100784.88
2023-02-19T00:14:07.207Z,100782.31
2023-02-19T00:14:21.844Z,100782.31
2023-02-19T00:14:34.783Z,100788.44
2023-02-19T00:14:47.765Z,100784.88
2023-02-19T00:15:00.694Z,100783.16
2023-02-19T00:15:13.888Z,100785.72
2023-02-19T00:15:26.822Z,100784.88
2023-02-19T00:15:40.951Z,100777.78
2023-02-19T00:15:53.967Z,100783.09
2023-02-19T00:16:08.869Z,100790.06
2023-02-19T00:16:24.071Z,100788.31
2023-02-19T00:16:38.574Z,100786.66
2023-02-19T00:16:52.564Z,100785.72
2023-02-19T00:17:05.498Z,100798.00
2023-02-19T00:17:18.483Z,100789.22
2023-02-19T00:17:31.830Z,100785.66
2023-02-19T00:17:44.951Z,100786.59
2023-02-19T00:17:57.944Z,100786.59
2023-02-19T00:18:10.769Z,100788.38
2023-02-19T00:18:23.862Z,100790.19
2023-02-19T00:18:38.147Z,100787.53
2023-02-19T00:18:51.601Z,100786.66
2023-02-19T00:19:06.935Z,100792.81
2023-02-19T00:19:21.816Z,100788.38
2023-02-19T00:19:34.741Z,100791.09
2023-02-19T00:19:47.630Z,100789.28
2023-02-19T00:20:01.690Z,100788.44
2023-02-19T00:20:14.800Z,100789.28
2023-02-19T00:20:27.964Z,100784.09
2023-02-19T00:20:41.011Z,100785.91
2023-02-19T00:20:57.086Z,100787.59
2023-02-19T00:21:10.595Z,100784.19
2023-02-19T00:21:25.765Z,100788.56
2023-02-19T00:21:38.940Z,100787.66
2023-02-19T00:21:52.916Z,100785.91
2023-02-19T00:22:10.413Z,100788.56
2023-02-19T00:22:23.732Z,100786.91
2023-02-19T00:22:36.769Z,100789.47
2023-02-19T00:22:49.832Z,100786.81
2023-02-19T00:23:03.821Z,100785.97
2023-02-19T00:23:17.171Z,100787.78
2023-02-19T00:23:30.472Z,100785.13
2023-02-19T00:23:43.596Z,100784.25
2023-02-19T00:23:59.194Z,100788.69
2023-02-19T00:24:14.161Z,100793.06
2023-02-19T00:24:28.075Z,100793.97
2023-02-19T00:24:41.028Z,100787.00
2023-02-19T00:24:54.157Z,100789.66
2023-02-19T00:25:07.319Z,100789.66
2023-02-19T00:25:20.371Z,100789.66
2023-02-19T00:25:37.018Z,100788.75
2023-02-19T00:25:50.066Z,100782.63
2023-02-19T00:26:16.204Z,100789.66
2023-02-19T00:26:32.792Z,100788.75
2023-02-19T00:26:46.904Z,100789.66
2023-02-19T00:27:00.222Z,100782.47
2023-02-19T00:27:13.237Z,100790.41
2023-02-19T00:27:26.233Z,100790.41
2023-02-19T00:27:39.265Z,100793.06
2023-02-19T00:27:52.234Z,100782.47
2023-02-19T00:28:05.480Z,100788.63
2023-02-19T00:28:20.907Z,100788.63
2023-02-19T00:28:33.875Z,100793.06
2023-02-19T00:28:47.837Z,100782.47
2023-02-19T00:29:01.783Z,100790.50
2023-02-19T00:29:17.140Z,100782.47
2023-02-19T00:29:31.226Z,100789.47
2023-02-19T00:29:44.301Z,100785.97
2023-02-19T00:29:57.351Z,100789.47
2023-02-19T00:30:11.124Z,100792.13
2023-02-19T00:30:24.181Z,100792.97
2023-02-19T00:30:37.135Z,100795.63
2023-02-19T00:30:50.344Z,100788.56
2023-02-19T00:31:09.527Z,100779.91
2023-02-19T00:31:25.061Z,100791.19
2023-02-19T00:31:38.293Z,100786.81
2023-02-19T00:31:51.373Z,100791.19
2023-02-19T00:32:05.117Z,100792.91
2023-02-19T00:32:19.238Z,100786.75
2023-02-19T00:32:32.463Z,100787.59
2023-02-19T00:32:51.411Z,100791.09
2023-02-19T00:33:04.384Z,100789.28
2023-02-19T00:33:17.425Z,100790.19
2023-02-19T00:33:30.428Z,100789.28
2023-02-19T00:33:44.105Z,100787.53
2023-02-19T00:33:59.898Z,100785.72
2023-02-19T00:34:13.771Z,100784.78
2023-02-19T00:34:26.860Z,100790.97
2023-02-19T00:34:39.811Z,100789.16
2023-02-19T00:34:53.182Z,100790.06
2023-02-19T00:35:06.663Z,100789.16
2023-02-19T00:35:19.638Z,100785.56
2023-02-19T00:35:35.346Z,100790.78
2023-02-19T00:35:48.409Z,100794.28
2023-02-19T00:36:02.728Z,100786.34
2023-02-19T00:36:16.593Z,100787.13
2023-02-19T00:36:30.869Z,100784.56
2023-02-19T00:36:45.885Z,100796.84
2023-02-19T00:36:58.989Z,100785.41
2023-02-19T00:37:12.155Z,100791.56
2023-02-19T00:37:25.185Z,100788.84
2023-02-19T00:37:38.269Z,100791.56
2023-02-19T00:37:51.311Z,100787.97
2023-02-19T00:38:07.810Z,100787.97
2023-02-19T00:38:37.317Z,100791.50
2023-02-19T00:39:05.813Z,100786.19
2023-02-19T00:39:35.691Z,100787.03
2023-02-19T00:39:58.812Z,100779.94
2023-02-19T00:40:11.606Z,100786.97
2023-02-19T00:40:26.092Z,100781.69
2023-02-19T00:40:39.271Z,100793.03
2023-02-19T00:40:51.878Z,100788.66
2023-02-19T00:41:19.000Z,100787.81
2023-02-19T00:41:33.253Z,100793.88
2023-02-19T00:41:46.472Z,100786.78
2023-02-19T00:42:00.822Z,100792.94
2023-02-19T00:42:13.411Z,100791.16
2023-02-19T00:42:26.168Z,100791.06
2023-02-19T00:42:38.816Z,100789.25
2023-02-19T00:42:51.382Z,100792.78
2023-02-19T00:43:04.949Z,100788.34
2023-02-19T00:43:19.165Z,100795.44
2023-02-19T00:43:31.723Z,100790.03
2023-02-19T00:43:44.276Z,100790.91
2023-02-19T00:43:58.634Z,100794.41
2023-02-19T00:44:12.236Z,100795.19
2023-02-19T00:44:25.788Z,100790.75
2023-02-19T00:44:38.360Z,100788.94
2023-02-19T00:44:50.912Z,100788.88
2023-02-19T00:45:03.712Z,100785.28
2023-02-19T00:45:16.356Z,100789.72
2023-02-19T00:45:28.950Z,100786.16
2023-02-19T00:45:41.558Z,100786.16
2023-02-19T00:45:55.210Z,100790.56
2023-02-19T00:46:08.385Z,100777.25
2023-02-19T00:46:23.412Z,100793.16
2023-02-19T00:46:38.209Z,100788.69
2023-02-19T00:46:51.808Z,100793.16
2023-02-19T00:47:04.744Z,100789.56
2023-02-19T00:47:17.322Z,100786.06
2023-02-19T00:47:29.999Z,100779.00
2023-02-19T00:47:42.585Z,100780.69
2023-02-19T00:47:55.121Z,100790.44
2023-02-19T00:48:07.666Z,100791.28
2023-02-19T00:48:20.234Z,100789.56
2023-02-19T00:48:33.781Z,100788.63
2023-02-19T00:48:46.732Z,100790.34
2023-02-19T00:48:59.640Z,100788.63
2023-02-19T00:49:17.055Z,100788.63
2023-02-19T00:49:29.630Z,100789.47
2023-02-19T00:49:43.198Z,100784.09
2023-02-19T00:49:55.747Z,100785.06
2023-02-19T00:50:08.649Z,100785.06
2023-02-19T00:50:21.260Z,100789.41
2023-02-19T00:50:33.855Z,100787.72
2023-02-19T00:50:46.429Z,100785.97
2023-02-19T00:50:58.997Z,100788.56
2023-02-19T00:51:12.122Z,100787.72
2023-02-19T00:51:27.319Z,100787.72
2023-02-19T00:51:40.927Z,100792.13
2023-02-19T00:51:53.622Z,100786.81
2023-02-19T00:52:06.363Z,100786.81
2023-02-19T00:52:18.944Z,100792.91
2023-02-19T00:52:31.653Z,100790.25
2023-02-19T00:52:44.238Z,100783.19
2023-02-19T00:52:56.820Z,100786.75
2023-02-19T00:53:10.400Z,100790.25
2023-02-19T00:53:23.020Z,100792.91
2023-02-19T00:53:35.591Z,100789.41
2023-02-19T00:53:48.555Z,100789.41
2023-02-19T00:54:01.408Z,100794.69
2023-02-19T00:54:14.539Z,100790.25
2023-02-19T00:54:28.110Z,100789.41
2023-02-19T00:54:40.910Z,100787.59
2023-02-19T00:54:53.522Z,100784.94
2023-02-19T00:55:06.624Z,100789.41
2023-02-19T00:55:19.218Z,100791.97
2023-02-19T00:55:31.797Z,100791.97
2023-02-19T00:55:44.330Z,100783.09
2023-02-19T00:55:57.884Z,100785.84
2023-02-19T00:56:10.806Z,100791.13
2023-02-19T00:56:23.514Z,100788.38
2023-02-19T00:56:36.267Z,100794.53
2023-02-19T00:56:49.323Z,100783.94
2023-02-19T00:57:02.004Z,100792.56
2023-02-19T00:57:15.532Z,100785.47
2023-02-19T00:57:28.165Z,100794.31
2023-02-19T00:57:40.744Z,100796.06
2023-02-19T00:57:53.302Z,100791.66
2023-02-19T00:58:05.898Z,100793.41
2023-02-19T00:58:19.822Z,100794.38
2023-02-19T00:58:33.010Z,100792.56
2023-02-19T00:58:47.013Z,100792.56
2023-02-19T00:58:59.925Z,100785.47
2023-02-19T00:59:12.496Z,100798.72
2023-02-19T00:59:25.061Z,100795.22
2023-02-19T00:59:37.604Z,100790.78
2023-02-19T00:59:50.188Z,100792.50
2023-02-19T01:00:02.848Z,100789.94
2023-02-19T01:00:16.717Z,100785.47
2023-02-19T01:00:29.240Z,100790.69
2023-02-19T01:00:41.779Z,100790.78
2023-02-19T01:00:54.322Z,100784.63
2023-02-19T01:01:08.209Z,100784.63
2023-02-19T01:01:21.440Z,100778.47
2023-02-19T01:01:34.075Z,100787.28
2023-02-19T01:01:47.736Z,100785.47
2023-02-19T01:02:00.380Z,100789.06
2023-02-19T01:02:12.995Z,100786.44
2023-02-19T01:02:26.859Z,100789.06
2023-02-19T01:02:39.400Z,100780.28
2023-02-19T01:02:52.554Z,100781.13
2023-02-19T01:03:05.093Z,100784.69
2023-02-19T01:03:18.654Z,100785.59
2023-02-19T01:03:31.298Z,100782.16
2023-02-19T01:03:44.235Z,100790.00
2023-02-19T01:03:56.881Z,100790.88
2023-02-19T01:04:09.446Z,100782.06
2023-02-19T01:04:22.979Z,100789.06
2023-02-19T01:04:35.700Z,100782.94
2023-02-19T01:04:48.561Z,100790.78
2023-02-19T01:05:01.164Z,100793.41
2023-02-19T01:05:13.735Z,100787.28
2023-02-19T01:05:26.313Z,100791.66
2023-02-19T01:05:38.883Z,100790.78
2023-02-19T01:05:53.564Z,100794.19
2023-02-19T01:06:08.825Z,100791.53
2023-02-19T01:06:21.774Z,100786.25
2023-02-19T01:06:35.340Z,100792.44
2023-02-19T01:06:48.894Z,100785.34
2023-02-19T01:07:01.551Z,100790.63
2023-02-19T01:07:16.400Z,100788.81
2023-02-19T01:07:28.975Z,100787.13
2023-02-19T01:07:41.551Z,100782.69
2023-02-19T01:07:54.093Z,100787.88
2023-02-19T01:08:06.719Z,100787.03
2023-02-19T01:08:19.553Z,100782.75
2023-02-19T01:08:33.890Z,100786.09
2023-02-19T01:08:47.274Z,100784.38
2023-02-19T01:08:59.875Z,100783.47
2023-02-19T01:09:12.526Z,100780.69
2023-02-19T01:09:25.069Z,100784.31
2023-02-19T01:09:39.120Z,100781.59
2023-02-19T01:09:51.691Z,100788.66
2023-02-19T01:10:04.979Z,100782.50
2023-02-19T01:10:17.592Z,100778.94
2023-02-19T01:10:30.143Z,100786.88
2023-02-19T01:10:42.940Z,100785.94
2023-02-19T01:10:56.777Z,100781.47
2023-02-19T01:11:10.218Z,100783.28
2023-02-19T01:11:23.091Z,100777.97
2023-02-19T01:11:36.018Z,100781.41
2023-02-19T01:11:48.613Z,100784.06
2023-02-19T01:12:01.226Z,100776.94
2023-02-19T01:12:14.789Z,100783.13
2023-02-19T01:12:28.180Z,100780.47
2023-02-19T01:12:40.754Z,100784.81
2023-02-19T01:12:53.321Z,100781.91
2023-02-19T01:13:05.933Z,100781.91
2023-02-19T01:13:20.276Z,100784.56
2023-02-19T01:13:34.061Z,100781.91
2023-02-19T01:13:46.688Z,100778.44
2023-02-19T01:14:01.036Z,100772.19
2023-02-19T01:14:13.673Z,100775.78
2023-02-19T01:14:26.553Z,100769.53
2023-02-19T01:14:39.396Z,100773.91
2023-02-19T01:14:51.977Z,100776.56
2023-02-19T01:15:04.901Z,100777.47
2023-02-19T01:15:17.647Z,100774.69
2023-02-19T01:15:32.273Z,100770.22
2023-02-19T01:15:45.543Z,100772.03
2023-02-19T01:16:04.766Z,100773.72
2023-02-19T01:16:19.950Z,100776.38
2023-02-19T01:16:32.588Z,100770.16
2023-02-19T01:16:45.206Z,100774.56
2023-02-19T01:16:57.813Z,100774.50
2023-02-19T01:17:10.365Z,100773.56
2023-02-19T01:17:23.987Z,100771.00
2023-02-19T01:17:36.805Z,100768.34
2023-02-19T01:17:49.414Z,100771.84
2023-02-19T01:18:02.187Z,100770.16
2023-02-19T01:18:15.048Z,100771.84
2023-02-19T01:18:27.605Z,100767.38
2023-02-19T01:18:40.241Z,100770.91
2023-02-19T01:18:53.773Z,100771.84
2023-02-19T01:19:07.629Z,100770.03
2023-02-19T01:19:20.185Z,100768.28
2023-02-19T01:19:32.736Z,100762.97
2023-02-19T01:19:45.285Z,100768.28
2023-02-19T01:19:57.850Z,100768.28
2023-02-19T01:20:10.703Z,100769.13
2023-02-19T01:20:24.482Z,100772.63
2023-02-19T01:20:38.993Z,100765.63
2023-02-19T01:20:51.571Z,100771.69
2023-02-19T01:21:07.194Z,100767.31
2023-02-19T01:21:22.157Z,100772.63
2023-02-19T01:21:34.777Z,100773.38
2023-02-19T01:21:48.369Z,100763.13
2023-02-19T01:22:00.967Z,100763.75
2023-02-19T01:22:13.640Z,100767.25
2023-02-19T01:22:26.278Z,100770.75
2023-02-19T01:22:38.866Z,100769.88
2023-02-19T01:22:51.697Z,100768.09
2023-02-19T01:23:04.253Z,100764.59
2023-02-19T01:23:17.787Z,100767.25
2023-02-19T01:23:30.347Z,100762.78
2023-02-19T01:23:44.235Z,100770.66
2023-02-19T01:23:58.008Z,100776.88
2023-02-19T01:24:10.856Z,100769.81
2023-02-19T01:24:23.445Z,100768.09
2023-02-19T01:24:36.010Z,100770.66
2023-02-19T01:24:48.545Z,100771.50
2023-02-19T01:25:01.181Z,100772.47
2023-02-19T01:25:14.728Z,100770.75
2023-02-19T01:25:27.330Z,100775.13
2023-02-19T01:25:40.245Z,100772.47
2023-02-19T01:25:52.858Z,100775.13
2023-02-19T01:26:06.604Z,100774.16
2023-02-19T01:26:20.951Z,100775.13
2023-02-19T01:26:35.120Z,100774.25
2023-02-19T01:26:47.947Z,100784.84
2023-02-19T01:27:00.491Z,100768.94
2023-02-19T01:27:13.088Z,100775.13
2023-02-19T01:27:26.064Z,100778.69
2023-02-19T01:27:38.639Z,100778.69
2023-02-19T01:27:51.199Z,100780.41
2023-02-19T01:28:04.998Z,100780.41
2023-02-19T01:28:18.961Z,100777.75
2023-02-19T01:28:31.521Z,100778.59
2023-02-19T01:28:44.708Z,100783.91
2023-02-19T01:28:57.599Z,100775.13
2023-02-19T01:29:10.329Z,100779.47
2023-02-19T01:29:23.879Z,100772.34
2023-02-19T01:29:36.812Z,100778.50
2023-02-19T01:29:49.365Z,100777.66
2023-02-19T01:30:01.960Z,100782.97
2023-02-19T01:30:14.941Z,100772.47
2023-02-19T01:30:27.765Z,100775.00
2023-02-19T01:30:40.565Z,100778.50
2023-02-19T01:30:54.707Z,100789.09
2023-02-19T01:31:13.545Z,100778.50
2023-02-19T01:31:26.863Z,100770.66
2023-02-19T01:31:42.222Z,100770.56
2023-02-19T01:31:55.080Z,100773.13
2023-02-19T01:32:07.809Z,100775.78
2023-02-19T01:32:21.421Z,100771.31
2023-02-19T01:32:34.012Z,100770.47
2023-02-19T01:32:46.572Z,100774.94
2023-02-19T01:32:59.109Z,100773.06
2023-02-19T01:33:11.687Z,100772.22
2023-02-19T01:33:24.342Z,100762.53
2023-02-19T01:33:36.914Z,100767.75
2023-02-19T01:33:51.977Z,100766.81
2023-02-19T01:34:06.452Z,100765.94
2023-02-19T01:34:19.038Z,100764.16
2023-02-19T01:34:33.533Z,100771.19
2023-02-19T01:34:46.417Z,100769.44
2023-02-19T01:34:59.006Z,100771.19
2023-02-19T01:35:11.585Z,100771.19
2023-02-19T01:35:24.146Z,100774.66
2023-02-19T01:35:40.683Z,100772.88
2023-02-19T01:35:53.247Z,100772.03
2023-02-19T01:36:07.224Z,100772.88
2023-02-19T01:36:20.140Z,100768.59
2023-02-19T01:36:34.490Z,100774.59
2023-02-19T01:36:47.088Z,100768.44
2023-02-19T01:37:00.699Z,100770.16
2023-02-19T01:37:13.282Z,100775.44
2023-02-19T01:37:25.853Z,100776.28
2023-02-19T01:37:38.505Z,100773.66
2023-02-19T01:37:51.096Z,100775.44
2023-02-19T01:38:03.676Z,100771.00
2023-02-19T01:38:16.234Z,100774.59
2023-02-19T01:38:28.796Z,100775.44
2023-02-19T01:38:41.573Z,100778.94
2023-02-19T01:38:55.671Z,100770.16
2023-02-19T01:39:08.461Z,100775.44
2023-02-19T01:39:21.032Z,100772.72
2023-02-19T01:39:33.592Z,100777.06
2023-02-19T01:39:47.444Z,100778.88
2023-02-19T01:40:00.020Z,100774.41
2023-02-19T01:40:12.711Z,100776.22
2023-02-19T01:40:26.731Z,100774.41
2023-02-19T01:40:39.326Z,100779.72
2023-02-19T01:40:56.493Z,100772.72
2023-02-19T01:41:11.999Z,100776.13
2023-02-19T01:41:26.375Z,100782.28
2023-02-19T01:41:41.323Z,100774.25
2023-02-19T01:41:54.903Z,100783.06
2023-02-19T01:42:13.656Z,100781.25
2023-02-19T01:42:26.220Z,100781.19
2023-02-19T01:42:43.508Z,100778.53
2023-02-19T01:42:56.182Z,100782.09
2023-02-19T01:43:15.994Z,100783.84
2023-02-19T01:43:33.669Z,100777.69
2023-02-19T01:43:57.758Z,100781.19
2023-02-19T01:44:49.101Z,100781.25
2023-02-19T01:45:23.061Z,100778.59
2023-02-19T01:45:38.286Z,100783.06
2023-02-19T01:45:51.004Z,100781.25
2023-02-19T01:46:03.749Z,100777.75
2023-02-19T01:46:16.333Z,100780.41
2023-02-19T01:46:30.672Z,100775.97
2023-02-19T01:46:45.270Z,100773.31
2023-02-19T01:46:58.797Z,100780.34
2023-02-19T01:47:11.727Z,100780.34
2023-02-19T01:47:24.444Z,100775.97
2023-02-19T01:47:37.090Z,100776.81
2023-02-19T01:47:55.891Z,100780.34
2023-02-19T01:48:14.157Z,100777.69
2023-02-19T01:48:29.858Z,100775.88
2023-02-19T01:48:42.516Z,100777.69
2023-02-19T01:48:58.339Z,100773.22
2023-02-19T01:49:14.833Z,100779.38
2023-02-19T01:49:31.234Z,100767.09
2023-02-19T01:49:48.719Z,100775.03
2023-02-19T01:50:01.345Z,100776.81
2023-02-19T01:50:14.001Z,100767.09
2023-02-19T01:50:29.002Z,100768.84
2023-02-19T01:50:48.584Z,100766.19
2023-02-19T01:51:06.772Z,100770.66
2023-02-19T01:51:21.606Z,100766.19
2023-02-19T01:51:36.764Z,100770.66
2023-02-19T01:51:55.715Z,100760.06
2023-02-19T01:52:14.490Z,100768.84
2023-02-19T01:52:33.166Z,100768.78
2023-02-19T01:52:46.073Z,100769.63
2023-02-19T01:53:04.326Z,100770.47
2023-02-19T01:53:21.760Z,100764.31
2023-02-19T01:53:40.223Z,100770.47
2023-02-19T01:53:57.600Z,100768.78
2023-02-19T01:54:13.690Z,100767.81
2023-02-19T01:54:30.172Z,100767.81
2023-02-19T01:54:46.040Z,100775.78
2023-02-19T01:55:01.455Z,100773.13
2023-02-19T01:55:14.426Z,100760.06
2023-02-19T01:55:28.017Z,100765.16
2023-02-19T01:55:41.318Z,100770.47
2023-02-19T01:55:58.848Z,100761.59
2023-02-19T01:56:15.234Z,100766.91
2023-02-19T01:56:29.149Z,100766.91
2023-02-19T01:56:45.444Z,100774.00
2023-02-19T01:56:59.480Z,100772.19
2023-02-19T01:57:16.049Z,100772.19
2023-02-19T01:57:32.140Z,100766.91
2023-02-19T01:57:47.795Z,100772.19
2023-02-19T01:58:01.918Z,100774.84
2023-02-19T01:58:15.828Z,100772.19
2023-02-19T01:58:34.700Z,100770.31
2023-02-19T01:58:47.601Z,100771.25
2023-02-19T01:59:01.827Z,100774.78
2023-02-19T01:59:14.937Z,100773.88
2023-02-19T01:59:27.543Z,100777.41
2023-02-19T01:59:40.971Z,100772.97
2023-02-19T01:59:56.606Z,100772.97
2023-02-19T02:00:13.129Z,100772.13
2023-02-19T02:00:26.272Z,100774.66
2023-02-19T02:00:38.946Z,100772.00
2023-02-19T02:00:51.906Z,100772.00
2023-02-19T02:01:09.803Z,100769.97
2023-02-19T02:01:22.709Z,100770.81
2023-02-19T02:01:36.262Z,100772.63
2023-02-19T02:01:49.423Z,100775.28
2023-02-19T02:02:02.182Z,100775.28
2023-02-19T02:02:14.846Z,100774.41
2023-02-19T02:02:28.547Z,100768.25
2023-02-19T02:02:43.975Z,100771.00
2023-02-19T02:02:59.802Z,100773.56
2023-02-19T02:03:12.941Z,100777.16
2023-02-19T02:03:25.771Z,100772.69
2023-02-19T02:03:40.786Z,100779.81
2023-02-19T02:03:53.766Z,100776.31
2023-02-19T02:04:07.962Z,100774.66
2023-02-19T02:04:21.612Z,100772.78
2023-02-19T02:04:34.737Z,100770.13
2023-02-19T02:04:47.555Z,100774.50
2023-02-19T02:05:00.842Z,100774.50
2023-02-19T02:05:20.678Z,100773.56
2023-02-19T02:05:44.062Z,100771.84
2023-02-19T02:06:02.670Z,100774.50
2023-02-19T02:06:21.501Z,100769.22
2023-02-19T02:06:39.714Z,100777.16
2023-02-19T02:06:53.975Z,100774.50
2023-02-19T02:07:27.250Z,100764.84
2023-02-19T02:07:58.112Z,100774.50
2023-02-19T02:08:30.847Z,100772.69
2023-02-19T02:09:07.265Z,100773.56
2023-02-19T02:09:40.070Z,100768.38
2023-02-19T02:10:20.727Z,100770.06
2023-02-19T02:10:34.231Z,100774.41
2023-02-19T02:10:47.933Z,100769.09
2023-02-19T02:11:00.744Z,100771.75
2023-02-19T02:11:13.725Z,100772.63
2023-02-19T02:11:27.847Z,100770.91
2023-02-19T02:11:45.246Z,100775.28
2023-02-19T02:11:58.855Z,100774.41
2023-02-19T02:12:12.804Z,100770.81
2023-02-19T02:12:25.462Z,100769.09
2023-02-19T02:12:38.037Z,100771.00
2023-02-19T02:12:56.407Z,100772.69
2023-02-19T02:13:09.144Z,100775.28
2023-02-19T02:13:23.185Z,100770.91
2023-02-19T02:13:39.007Z,100769.09
2023-02-19T02:13:52.129Z,100772.63
2023-02-19T02:14:05.148Z,100765.59
2023-02-19T02:14:22.252Z,100770.81
2023-02-19T02:14:38.744Z,100769.22
2023-02-19T02:14:51.333Z,100769.97
2023-02-19T02:15:04.768Z,100759.38
2023-02-19T02:15:18.131Z,100768.25
2023-02-19T02:15:40.122Z,100769.97
2023-02-19T02:16:06.784Z,100768.25
2023-02-19T02:16:26.525Z,100765.59
2023-02-19T02:16:51.556Z,100762.88
2023-02-19T02:17:16.379Z,100762.94
2023-02-19T02:17:35.030Z,100755.84
2023-02-19T02:17:56.660Z,100760.31
2023-02-19T02:18:19.409Z,100761.25
2023-02-19T02:18:43.225Z,100760.41
2023-02-19T02:19:01.967Z,100763.91
2023-02-19T02:19:32.197Z,100761.16
2023-02-19T02:20:07.244Z,100747.03
2023-02-19T02:20:32.574Z,100762.03
2023-02-19T02:21:03.568Z,100760.22
2023-02-19T02:21:36.653Z,100764.69
2023-02-19T02:21:57.680Z,100761.06
2023-02-19T02:22:18.087Z,100753.19
2023-02-19T02:22:37.494Z,100760.22
2023-02-19T02:23:00.837Z,100763.72
2023-02-19T02:23:21.100Z,100754.06
2023-02-19T02:23:46.838Z,100746.97
2023-02-19T02:24:12.689Z,100757.31
2023-02-19T02:24:51.173Z,100746.72
2023-02-19T02:25:28.318Z,100754.66
2023-02-19T02:25:58.991Z,100742.38
2023-02-19T02:26:32.464Z,100745.94
2023-02-19T02:27:04.290Z,100737.97
2023-02-19T02:27:44.310Z,100747.75
2023-02-19T02:28:12.995Z,100744.81
2023-02-19T02:28:46.640Z,100739.59
2023-02-19T02:29:20.080Z,100745.00
2023-02-19T02:29:54.977Z,100743.28
2023-02-19T02:30:22.980Z,100739.88
2023-02-19T02:30:41.737Z,100743.38
2023-02-19T02:30:57.553Z,100741.59
2023-02-19T02:31:15.061Z,100736.28
2023-02-19T02:31:32.069Z,100742.50
2023-02-19T02:31:50.286Z,100734.56
2023-02-19T02:32:07.163Z,100743.47
2023-02-19T02:32:24.680Z,100739.88
2023-02-19T02:32:43.298Z,100734.66
2023-02-19T02:33:02.749Z,100743.47
2023-02-19T02:33:26.436Z,100735.53
2023-02-19T02:33:44.817Z,100733.78
2023-02-19T02:34:04.762Z,100736.44
2023-02-19T02:34:24.368Z,100738.19
2023-02-19T02:34:42.123Z,100738.19
2023-02-19T02:34:59.759Z,100738.19
2023-02-19T02:35:19.287Z,100732.88
2023-02-19T02:35:45.151Z,100732.88
2023-02-19T02:36:03.211Z,100732.88
2023-02-19T02:36:18.950Z,100730.22
2023-02-19T02:36:35.906Z,100737.81
2023-02-19T02:36:52.865Z,100736.94
2023-02-19T02:37:08.184Z,100735.19
2023-02-19T02:37:21.554Z,100737.81
2023-02-19T02:37:38.343Z,100736.09
2023-02-19T02:37:55.171Z,100736.09
2023-02-19T02:38:12.047Z,100738.75
2023-02-19T02:38:27.533Z,100731.75
2023-02-19T02:38:43.360Z,100736.09
2023-02-19T02:38:58.376Z,100739.72
2023-02-19T02:39:16.933Z,100736.09
2023-02-19T02:39:32.509Z,100736.09
2023-02-19T02:39:47.017Z,100729.00
2023-02-19T02:39:59.889Z,100736.09
2023-02-19T02:40:12.808Z,100738.75
2023-02-19T02:40:25.738Z,100731.75
2023-02-19T02:40:43.475Z,100734.41
2023-02-19T02:40:57.501Z,100736.09
2023-02-19T02:41:11.899Z,100725.50
2023-02-19T02:41:25.660Z,100723.81
2023-02-19T02:41:43.571Z,100728.16
2023-02-19T02:42:17.482Z,100730.81
2023-02-19T02:42:30.149Z,100723.81
2023-02-19T02:42:44.624Z,100726.47
2023-02-19T02:42:58.009Z,100722.94
2023-02-19T02:43:10.732Z,100726.47
2023-02-19T02:43:23.911Z,100725.31
2023-02-19T02:43:36.457Z,100726.28
2023-02-19T02:43:49.014Z,100729.69
2023-02-19T02:44:02.551Z,100723.53
2023-02-19T02:44:15.134Z,100727.88
2023-02-19T02:44:34.617Z,100731.50
2023-02-19T02:45:03.396Z,100724.38
2023-02-19T02:45:35.870Z,100719.28
2023-02-19T02:45:48.857Z,100719.34
2023-02-19T02:46:02.581Z,100716.69
2023-02-19T02:46:21.585Z,100710.56
2023-02-19T02:46:37.587Z,100720.28
2023-02-19T02:46:50.186Z,100723.81
2023-02-19T02:47:06.236Z,100725.59
2023-02-19T02:47:33.673Z,100717.63
2023-02-19T02:47:51.502Z,100717.75
2023-02-19T02:48:12.566Z,100711.56
2023-02-19T02:48:30.654Z,100719.50
2023-02-19T02:48:53.727Z,100715.09
2023-02-19T02:49:13.702Z,100718.66
2023-02-19T02:49:26.972Z,100715.09
2023-02-19T02:50:00.169Z,100711.56
2023-02-19T02:50:19.244Z,100718.13
2023-02-19T02:50:37.829Z,100714.72
2023-02-19T02:50:56.120Z,100711.31
2023-02-19T02:51:16.196Z,100716.63
2023-02-19T02:51:32.240Z,100711.31
2023-02-19T02:51:47.804Z,100718.41
2023-02-19T02:52:22.244Z,100712.16
2023-02-19T02:52:57.294Z,100717.56
2023-02-19T02:53:32.884Z,100714.13
2023-02-19T02:54:08.690Z,100723.88
2023-02-19T02:54:44.762Z,100712.59
2023-02-19T02:55:03.235Z,100715.25
2023-02-19T02:55:16.705Z,100705.59
2023-02-19T02:55:35.742Z,100711.81
2023-02-19T02:55:52.143Z,100706.53
2023-02-19T02:56:05.413Z,100713.63
2023-02-19T02:56:19.714Z,100712.78
2023-02-19T02:56:33.527Z,100703.03